sensor_id;sensor_type;location;lat;lon;timestamp;P1;durP1;ratioP1;P2;durP2;ratioP2
4569;SDS011;2297;51.442;6.996;2022-10-18T00:00:37;2.70;;;2.05;;
4569;SDS011;2297;51.442;6.996;2022-10-18T00:03:04;4.40;;;2.25;;
4569;SDS011;2297;51.442;6.996;2022-10-18T00:05:30;3.17;;;2.00;;
4569;SDS011;2297;51.442;6.996;2022-10-18T00:07:57;5.25;;;2.10;;
4569;SDS011;2297;51.442;6.996;2022-10-18T00:10:24;3.30;;;2.08;;
4569;SDS011;2297;51.442;6.996;2022-10-18T00:12:51;5.22;;;1.95;;
4569;SDS011;2297;51.442;6.996;2022-10-18T00:15:17;2.38;;;1.70;;
4569;SDS011;2297;51.442;6.996;2022-10-18T00:17:46;2.08;;;1.77;;
4569;SDS011;2297;51.442;6.996;2022-10-18T00:20:15;2.90;;;1.90;;
4569;SDS011;2297;51.442;6.996;2022-10-18T00:22:42;3.90;;;1.95;;
4569;SDS011;2297;51.442;6.996;2022-10-18T00:25:08;3.15;;;2.20;;
4569;SDS011;2297;51.442;6.996;2022-10-18T00:27:36;4.40;;;2.20;;
4569;SDS011;2297;51.442;6.996;2022-10-18T00:30:03;4.22;;;2.03;;
4569;SDS011;2297;51.442;6.996;2022-10-18T00:32:30;3.45;;;2.00;;
4569;SDS011;2297;51.442;6.996;2022-10-18T00:35:02;6.47;;;1.98;;
4569;SDS011;2297;51.442;6.996;2022-10-18T00:37:29;3.45;;;2.05;;
4569;SDS011;2297;51.442;6.996;2022-10-18T00:39:56;2.25;;;1.88;;
4569;SDS011;2297;51.442;6.996;2022-10-18T00:42:24;5.10;;;1.90;;
4569;SDS011;2297;51.442;6.996;2022-10-18T00:45:05;2.58;;;1.55;;
4569;SDS011;2297;51.442;6.996;2022-10-18T00:47:39;3.20;;;1.90;;
4569;SDS011;2297;51.442;6.996;2022-10-18T00:50:08;3.72;;;2.17;;
4569;SDS011;2297;51.442;6.996;2022-10-18T00:52:36;2.80;;;2.13;;
4569;SDS011;2297;51.442;6.996;2022-10-18T00:55:04;4.13;;;2.03;;
4569;SDS011;2297;51.442;6.996;2022-10-18T00:57:32;3.75;;;2.10;;
4569;SDS011;2297;51.442;6.996;2022-10-18T00:59:59;3.40;;;2.38;;
4569;SDS011;2297;51.442;6.996;2022-10-18T01:02:26;2.30;;;1.83;;
4569;SDS011;2297;51.442;6.996;2022-10-18T01:04:54;2.55;;;1.75;;
4569;SDS011;2297;51.442;6.996;2022-10-18T01:07:26;2.95;;;1.90;;
4569;SDS011;2297;51.442;6.996;2022-10-18T01:13:05;3.63;;;1.83;;
4569;SDS011;2297;51.442;6.996;2022-10-18T01:15:46;2.65;;;2.10;;
4569;SDS011;2297;51.442;6.996;2022-10-18T01:18:20;3.90;;;2.30;;
4569;SDS011;2297;51.442;6.996;2022-10-18T01:20:58;4.32;;;2.00;;
4569;SDS011;2297;51.442;6.996;2022-10-18T01:23:47;3.58;;;2.10;;
4569;SDS011;2297;51.442;6.996;2022-10-18T01:26:31;4.07;;;2.13;;
4569;SDS011;2297;51.442;6.996;2022-10-18T01:29:11;2.63;;;2.13;;
4569;SDS011;2297;51.442;6.996;2022-10-18T01:31:48;5.38;;;2.30;;
4569;SDS011;2297;51.442;6.996;2022-10-18T01:34:18;2.60;;;1.98;;
4569;SDS011;2297;51.442;6.996;2022-10-18T01:36:46;4.47;;;2.22;;
4569;SDS011;2297;51.442;6.996;2022-10-18T01:39:15;2.72;;;2.00;;
4569;SDS011;2297;51.442;6.996;2022-10-18T01:41:46;6.55;;;2.10;;
4569;SDS011;2297;51.442;6.996;2022-10-18T01:44:16;4.97;;;2.33;;
4569;SDS011;2297;51.442;6.996;2022-10-18T01:46:46;4.15;;;2.15;;
4569;SDS011;2297;51.442;6.996;2022-10-18T01:49:14;4.55;;;2.42;;
4569;SDS011;2297;51.442;6.996;2022-10-18T01:51:41;4.00;;;2.28;;
4569;SDS011;2297;51.442;6.996;2022-10-18T01:54:07;4.35;;;2.53;;
4569;SDS011;2297;51.442;6.996;2022-10-18T01:56:38;5.05;;;2.53;;
4569;SDS011;2297;51.442;6.996;2022-10-18T01:59:23;4.43;;;2.47;;
4569;SDS011;2297;51.442;6.996;2022-10-18T02:02:00;4.35;;;2.05;;
4569;SDS011;2297;51.442;6.996;2022-10-18T02:04:36;3.97;;;2.20;;
4569;SDS011;2297;51.442;6.996;2022-10-18T02:07:12;4.03;;;2.38;;
4569;SDS011;2297;51.442;6.996;2022-10-18T02:09:45;2.75;;;2.08;;
4569;SDS011;2297;51.442;6.996;2022-10-18T02:12:20;4.80;;;2.47;;
4569;SDS011;2297;51.442;6.996;2022-10-18T02:14:48;3.53;;;2.25;;
4569;SDS011;2297;51.442;6.996;2022-10-18T02:17:16;3.85;;;2.55;;
4569;SDS011;2297;51.442;6.996;2022-10-18T02:19:48;5.10;;;3.17;;
4569;SDS011;2297;51.442;6.996;2022-10-18T02:22:19;7.95;;;3.75;;
4569;SDS011;2297;51.442;6.996;2022-10-18T02:24:48;6.03;;;2.92;;
4569;SDS011;2297;51.442;6.996;2022-10-18T02:27:18;4.20;;;2.70;;
4569;SDS011;2297;51.442;6.996;2022-10-18T02:29:45;6.30;;;2.65;;
4569;SDS011;2297;51.442;6.996;2022-10-18T02:32:15;6.75;;;3.08;;
4569;SDS011;2297;51.442;6.996;2022-10-18T02:34:46;4.70;;;2.90;;
4569;SDS011;2297;51.442;6.996;2022-10-18T02:37:19;3.78;;;2.50;;
4569;SDS011;2297;51.442;6.996;2022-10-18T02:39:46;6.15;;;2.95;;
4569;SDS011;2297;51.442;6.996;2022-10-18T02:42:15;5.28;;;3.13;;
4569;SDS011;2297;51.442;6.996;2022-10-18T02:44:42;4.78;;;2.80;;
4569;SDS011;2297;51.442;6.996;2022-10-18T02:47:09;4.40;;;2.60;;
4569;SDS011;2297;51.442;6.996;2022-10-18T02:49:37;5.97;;;3.15;;
4569;SDS011;2297;51.442;6.996;2022-10-18T02:52:05;89.35;;;45.83;;
4569;SDS011;2297;51.442;6.996;2022-10-18T02:54:31;24.60;;;14.20;;
4569;SDS011;2297;51.442;6.996;2022-10-18T02:56:58;11.32;;;5.47;;
4569;SDS011;2297;51.442;6.996;2022-10-18T02:59:24;7.63;;;3.85;;
4569;SDS011;2297;51.442;6.996;2022-10-18T03:01:51;5.97;;;4.35;;
4569;SDS011;2297;51.442;6.996;2022-10-18T03:04:18;6.07;;;3.63;;
4569;SDS011;2297;51.442;6.996;2022-10-18T03:06:44;7.22;;;3.83;;
4569;SDS011;2297;51.442;6.996;2022-10-18T03:09:12;7.68;;;3.97;;
4569;SDS011;2297;51.442;6.996;2022-10-18T03:11:39;5.82;;;3.55;;
4569;SDS011;2297;51.442;6.996;2022-10-18T03:17:03;6.97;;;4.25;;
4569;SDS011;2297;51.442;6.996;2022-10-18T03:19:30;56.78;;;31.33;;
4569;SDS011;2297;51.442;6.996;2022-10-18T03:21:56;10.60;;;6.18;;
4569;SDS011;2297;51.442;6.996;2022-10-18T03:24:24;8.27;;;4.90;;
4569;SDS011;2297;51.442;6.996;2022-10-18T03:26:51;6.68;;;4.32;;
4569;SDS011;2297;51.442;6.996;2022-10-18T03:29:17;8.93;;;4.50;;
4569;SDS011;2297;51.442;6.996;2022-10-18T03:31:44;6.93;;;4.30;;
4569;SDS011;2297;51.442;6.996;2022-10-18T03:34:11;6.53;;;4.60;;
4569;SDS011;2297;51.442;6.996;2022-10-18T03:36:37;9.68;;;5.05;;
4569;SDS011;2297;51.442;6.996;2022-10-18T03:39:05;7.78;;;4.90;;
4569;SDS011;2297;51.442;6.996;2022-10-18T03:41:33;7.97;;;4.57;;
4569;SDS011;2297;51.442;6.996;2022-10-18T03:43:59;12.48;;;5.88;;
4569;SDS011;2297;51.442;6.996;2022-10-18T03:46:26;7.57;;;4.90;;
4569;SDS011;2297;51.442;6.996;2022-10-18T03:48:53;7.85;;;5.57;;
4569;SDS011;2297;51.442;6.996;2022-10-18T03:51:20;8.77;;;5.00;;
4569;SDS011;2297;51.442;6.996;2022-10-18T03:53:46;12.05;;;6.03;;
4569;SDS011;2297;51.442;6.996;2022-10-18T03:56:13;12.93;;;6.22;;
4569;SDS011;2297;51.442;6.996;2022-10-18T03:58:41;22.15;;;12.05;;
4569;SDS011;2297;51.442;6.996;2022-10-18T04:01:07;28.60;;;15.65;;
4569;SDS011;2297;51.442;6.996;2022-10-18T04:03:34;15.73;;;8.23;;
4569;SDS011;2297;51.442;6.996;2022-10-18T04:06:00;12.85;;;6.72;;
4569;SDS011;2297;51.442;6.996;2022-10-18T04:08:27;12.65;;;6.20;;
4569;SDS011;2297;51.442;6.996;2022-10-18T04:10:54;10.85;;;6.28;;
4569;SDS011;2297;51.442;6.996;2022-10-18T04:13:21;11.95;;;6.95;;
4569;SDS011;2297;51.442;6.996;2022-10-18T04:15:49;11.75;;;6.75;;
4569;SDS011;2297;51.442;6.996;2022-10-18T04:18:15;12.75;;;6.72;;
4569;SDS011;2297;51.442;6.996;2022-10-18T04:20:42;24.67;;;13.00;;
4569;SDS011;2297;51.442;6.996;2022-10-18T04:23:08;13.73;;;7.75;;
4569;SDS011;2297;51.442;6.996;2022-10-18T04:25:35;15.80;;;7.85;;
4569;SDS011;2297;51.442;6.996;2022-10-18T04:28:02;14.15;;;7.20;;
4569;SDS011;2297;51.442;6.996;2022-10-18T04:30:28;16.50;;;7.95;;
4569;SDS011;2297;51.442;6.996;2022-10-18T04:32:56;15.50;;;7.38;;
4569;SDS011;2297;51.442;6.996;2022-10-18T04:35:23;14.95;;;8.02;;
4569;SDS011;2297;51.442;6.996;2022-10-18T04:37:50;15.93;;;8.07;;
4569;SDS011;2297;51.442;6.996;2022-10-18T04:40:16;13.13;;;7.10;;
4569;SDS011;2297;51.442;6.996;2022-10-18T04:42:44;12.88;;;7.60;;
4569;SDS011;2297;51.442;6.996;2022-10-18T04:45:10;14.52;;;7.18;;
4569;SDS011;2297;51.442;6.996;2022-10-18T04:47:37;17.23;;;8.85;;
4569;SDS011;2297;51.442;6.996;2022-10-18T04:50:06;15.80;;;9.30;;
4569;SDS011;2297;51.442;6.996;2022-10-18T04:52:33;15.88;;;8.45;;
4569;SDS011;2297;51.442;6.996;2022-10-18T04:55:01;19.08;;;8.68;;
4569;SDS011;2297;51.442;6.996;2022-10-18T04:57:27;15.68;;;9.10;;
4569;SDS011;2297;51.442;6.996;2022-10-18T04:59:54;14.27;;;8.18;;
4569;SDS011;2297;51.442;6.996;2022-10-18T05:02:21;17.45;;;8.82;;
4569;SDS011;2297;51.442;6.996;2022-10-18T05:05:07;16.70;;;8.93;;
4569;SDS011;2297;51.442;6.996;2022-10-18T05:07:34;18.27;;;8.80;;
4569;SDS011;2297;51.442;6.996;2022-10-18T05:10:02;14.15;;;8.27;;
4569;SDS011;2297;51.442;6.996;2022-10-18T05:12:28;13.63;;;8.45;;
4569;SDS011;2297;51.442;6.996;2022-10-18T05:14:55;14.30;;;8.63;;
4569;SDS011;2297;51.442;6.996;2022-10-18T05:17:22;16.70;;;9.70;;
4569;SDS011;2297;51.442;6.996;2022-10-18T05:19:48;29.02;;;14.13;;
4569;SDS011;2297;51.442;6.996;2022-10-18T05:22:17;26.27;;;13.10;;
4569;SDS011;2297;51.442;6.996;2022-10-18T05:24:43;16.15;;;9.27;;
4569;SDS011;2297;51.442;6.996;2022-10-18T05:27:10;17.30;;;8.88;;
4569;SDS011;2297;51.442;6.996;2022-10-18T05:29:36;17.35;;;8.68;;
4569;SDS011;2297;51.442;6.996;2022-10-18T05:34:48;17.70;;;8.50;;
4569;SDS011;2297;51.442;6.996;2022-10-18T05:37:16;21.35;;;9.80;;
4569;SDS011;2297;51.442;6.996;2022-10-18T05:39:44;19.55;;;9.57;;
4569;SDS011;2297;51.442;6.996;2022-10-18T05:42:10;13.38;;;8.95;;
4569;SDS011;2297;51.442;6.996;2022-10-18T05:44:37;20.70;;;10.02;;
4569;SDS011;2297;51.442;6.996;2022-10-18T05:47:03;19.08;;;9.52;;
4569;SDS011;2297;51.442;6.996;2022-10-18T05:49:30;19.25;;;9.82;;
4569;SDS011;2297;51.442;6.996;2022-10-18T05:51:57;20.02;;;9.25;;
4569;SDS011;2297;51.442;6.996;2022-10-18T05:54:24;18.17;;;10.35;;
4569;SDS011;2297;51.442;6.996;2022-10-18T05:56:51;18.33;;;9.23;;
4569;SDS011;2297;51.442;6.996;2022-10-18T05:59:18;17.38;;;9.57;;
4569;SDS011;2297;51.442;6.996;2022-10-18T06:01:44;16.88;;;9.40;;
4569;SDS011;2297;51.442;6.996;2022-10-18T06:04:11;23.00;;;10.50;;
4569;SDS011;2297;51.442;6.996;2022-10-18T06:06:38;20.65;;;10.50;;
4569;SDS011;2297;51.442;6.996;2022-10-18T06:09:05;36.17;;;19.10;;
4569;SDS011;2297;51.442;6.996;2022-10-18T06:11:34;42.15;;;21.20;;
4569;SDS011;2297;51.442;6.996;2022-10-18T06:14:01;29.05;;;13.90;;
4569;SDS011;2297;51.442;6.996;2022-10-18T06:16:28;28.15;;;13.23;;
4569;SDS011;2297;51.442;6.996;2022-10-18T06:18:55;23.90;;;12.18;;
4569;SDS011;2297;51.442;6.996;2022-10-18T06:21:24;30.33;;;12.70;;
4569;SDS011;2297;51.442;6.996;2022-10-18T06:23:51;35.58;;;15.07;;
4569;SDS011;2297;51.442;6.996;2022-10-18T06:26:19;27.40;;;13.75;;
4569;SDS011;2297;51.442;6.996;2022-10-18T06:28:47;28.10;;;12.68;;
4569;SDS011;2297;51.442;6.996;2022-10-18T06:31:15;116.85;;;51.03;;
4569;SDS011;2297;51.442;6.996;2022-10-18T06:33:42;46.30;;;22.77;;
4569;SDS011;2297;51.442;6.996;2022-10-18T06:36:10;38.10;;;16.20;;
4569;SDS011;2297;51.442;6.996;2022-10-18T06:38:44;33.58;;;15.55;;
4569;SDS011;2297;51.442;6.996;2022-10-18T06:41:10;32.80;;;14.77;;
4569;SDS011;2297;51.442;6.996;2022-10-18T06:43:37;28.90;;;14.68;;
4569;SDS011;2297;51.442;6.996;2022-10-18T06:46:05;31.50;;;14.15;;
4569;SDS011;2297;51.442;6.996;2022-10-18T06:48:33;29.85;;;15.40;;
4569;SDS011;2297;51.442;6.996;2022-10-18T06:51:00;36.10;;;14.10;;
4569;SDS011;2297;51.442;6.996;2022-10-18T06:53:31;32.05;;;14.02;;
4569;SDS011;2297;51.442;6.996;2022-10-18T06:55:58;25.20;;;13.07;;
4569;SDS011;2297;51.442;6.996;2022-10-18T06:58:26;30.58;;;14.43;;
4569;SDS011;2297;51.442;6.996;2022-10-18T07:00:53;29.50;;;13.88;;
4569;SDS011;2297;51.442;6.996;2022-10-18T07:03:22;33.08;;;14.75;;
4569;SDS011;2297;51.442;6.996;2022-10-18T07:05:49;34.35;;;13.95;;
4569;SDS011;2297;51.442;6.996;2022-10-18T07:08:16;31.67;;;14.40;;
4569;SDS011;2297;51.442;6.996;2022-10-18T07:10:49;37.72;;;15.48;;
4569;SDS011;2297;51.442;6.996;2022-10-18T07:13:17;34.13;;;14.20;;
4569;SDS011;2297;51.442;6.996;2022-10-18T07:15:43;28.48;;;13.40;;
4569;SDS011;2297;51.442;6.996;2022-10-18T07:18:10;27.63;;;13.75;;
4569;SDS011;2297;51.442;6.996;2022-10-18T07:24:00;23.08;;;12.38;;
4569;SDS011;2297;51.442;6.996;2022-10-18T07:26:28;28.55;;;13.75;;
4569;SDS011;2297;51.442;6.996;2022-10-18T07:28:56;32.03;;;14.45;;
4569;SDS011;2297;51.442;6.996;2022-10-18T07:31:25;30.15;;;14.77;;
4569;SDS011;2297;51.442;6.996;2022-10-18T07:33:53;34.67;;;14.65;;
4569;SDS011;2297;51.442;6.996;2022-10-18T07:36:19;33.75;;;15.25;;
4569;SDS011;2297;51.442;6.996;2022-10-18T07:38:46;34.85;;;14.85;;
4569;SDS011;2297;51.442;6.996;2022-10-18T07:41:27;29.95;;;13.98;;
4569;SDS011;2297;51.442;6.996;2022-10-18T07:43:55;32.28;;;14.90;;
4569;SDS011;2297;51.442;6.996;2022-10-18T07:46:22;37.50;;;15.80;;
4569;SDS011;2297;51.442;6.996;2022-10-18T07:48:49;44.30;;;17.35;;
4569;SDS011;2297;51.442;6.996;2022-10-18T07:51:15;40.60;;;17.15;;
4569;SDS011;2297;51.442;6.996;2022-10-18T07:53:42;37.05;;;17.58;;
4569;SDS011;2297;51.442;6.996;2022-10-18T07:56:10;41.38;;;16.65;;
4569;SDS011;2297;51.442;6.996;2022-10-18T07:58:47;44.72;;;19.88;;
4569;SDS011;2297;51.442;6.996;2022-10-18T08:01:16;39.28;;;18.08;;
4569;SDS011;2297;51.442;6.996;2022-10-18T08:03:43;38.38;;;16.50;;
4569;SDS011;2297;51.442;6.996;2022-10-18T08:06:11;37.83;;;16.67;;
4569;SDS011;2297;51.442;6.996;2022-10-18T08:08:39;39.40;;;17.50;;
4569;SDS011;2297;51.442;6.996;2022-10-18T08:11:07;37.00;;;16.95;;
4569;SDS011;2297;51.442;6.996;2022-10-18T08:13:35;36.78;;;16.90;;
4569;SDS011;2297;51.442;6.996;2022-10-18T08:16:04;40.78;;;17.70;;
4569;SDS011;2297;51.442;6.996;2022-10-18T08:18:33;43.92;;;18.83;;
4569;SDS011;2297;51.442;6.996;2022-10-18T08:21:00;36.83;;;16.40;;
4569;SDS011;2297;51.442;6.996;2022-10-18T08:23:28;44.72;;;19.02;;
4569;SDS011;2297;51.442;6.996;2022-10-18T08:25:55;44.22;;;19.65;;
4569;SDS011;2297;51.442;6.996;2022-10-18T08:28:21;39.75;;;18.55;;
4569;SDS011;2297;51.442;6.996;2022-10-18T08:30:48;42.78;;;19.50;;
4569;SDS011;2297;51.442;6.996;2022-10-18T08:33:16;42.03;;;18.80;;
4569;SDS011;2297;51.442;6.996;2022-10-18T08:35:43;42.88;;;20.83;;
4569;SDS011;2297;51.442;6.996;2022-10-18T08:38:19;44.30;;;20.40;;
4569;SDS011;2297;51.442;6.996;2022-10-18T08:40:46;42.78;;;18.65;;
4569;SDS011;2297;51.442;6.996;2022-10-18T08:43:13;49.42;;;21.85;;
4569;SDS011;2297;51.442;6.996;2022-10-18T08:45:47;44.25;;;21.88;;
4569;SDS011;2297;51.442;6.996;2022-10-18T08:48:18;46.70;;;21.60;;
4569;SDS011;2297;51.442;6.996;2022-10-18T08:50:48;44.33;;;20.92;;
4569;SDS011;2297;51.442;6.996;2022-10-18T08:53:18;47.95;;;20.92;;
4569;SDS011;2297;51.442;6.996;2022-10-18T08:55:49;49.63;;;21.73;;
4569;SDS011;2297;51.442;6.996;2022-10-18T09:01:25;46.05;;;22.65;;
4569;SDS011;2297;51.442;6.996;2022-10-18T09:04:07;47.88;;;22.52;;
4569;SDS011;2297;51.442;6.996;2022-10-18T09:06:52;50.60;;;23.50;;
4569;SDS011;2297;51.442;6.996;2022-10-18T09:09:32;48.40;;;23.67;;
4569;SDS011;2297;51.442;6.996;2022-10-18T09:12:07;56.75;;;24.52;;
4569;SDS011;2297;51.442;6.996;2022-10-18T09:14:51;45.25;;;23.20;;
4569;SDS011;2297;51.442;6.996;2022-10-18T09:17:33;52.70;;;24.58;;
4569;SDS011;2297;51.442;6.996;2022-10-18T09:20:10;50.53;;;24.13;;
4569;SDS011;2297;51.442;6.996;2022-10-18T09:22:59;64.55;;;30.83;;
4569;SDS011;2297;51.442;6.996;2022-10-18T09:28:42;50.90;;;24.58;;
4569;SDS011;2297;51.442;6.996;2022-10-18T09:31:18;52.58;;;25.38;;
4569;SDS011;2297;51.442;6.996;2022-10-18T09:33:52;48.47;;;25.15;;
4569;SDS011;2297;51.442;6.996;2022-10-18T09:36:24;52.08;;;24.85;;
4569;SDS011;2297;51.442;6.996;2022-10-18T09:39:00;54.42;;;26.20;;
4569;SDS011;2297;51.442;6.996;2022-10-18T09:41:31;55.15;;;27.13;;
4569;SDS011;2297;51.442;6.996;2022-10-18T09:44:00;70.18;;;32.85;;
4569;SDS011;2297;51.442;6.996;2022-10-18T09:46:32;57.92;;;27.05;;
4569;SDS011;2297;51.442;6.996;2022-10-18T09:49:04;49.55;;;23.60;;
4569;SDS011;2297;51.442;6.996;2022-10-18T09:51:40;42.08;;;22.05;;
4569;SDS011;2297;51.442;6.996;2022-10-18T09:54:12;41.97;;;22.08;;
4569;SDS011;2297;51.442;6.996;2022-10-18T09:56:47;41.20;;;22.55;;
4569;SDS011;2297;51.442;6.996;2022-10-18T10:02:08;43.53;;;23.75;;
4569;SDS011;2297;51.442;6.996;2022-10-18T10:04:39;49.47;;;24.63;;
4569;SDS011;2297;51.442;6.996;2022-10-18T10:07:08;39.75;;;21.92;;
4569;SDS011;2297;51.442;6.996;2022-10-18T10:09:39;43.72;;;22.95;;
4569;SDS011;2297;51.442;6.996;2022-10-18T10:12:22;47.97;;;22.40;;
4569;SDS011;2297;51.442;6.996;2022-10-18T10:14:51;44.35;;;22.55;;
4569;SDS011;2297;51.442;6.996;2022-10-18T10:17:21;38.65;;;21.23;;
4569;SDS011;2297;51.442;6.996;2022-10-18T10:19:55;37.92;;;19.88;;
4569;SDS011;2297;51.442;6.996;2022-10-18T10:22:34;36.40;;;18.60;;
4569;SDS011;2297;51.442;6.996;2022-10-18T10:25:02;35.28;;;18.70;;
4569;SDS011;2297;51.442;6.996;2022-10-18T10:27:30;32.42;;;18.02;;
4569;SDS011;2297;51.442;6.996;2022-10-18T10:29:59;64.13;;;31.00;;
4569;SDS011;2297;51.442;6.996;2022-10-18T10:32:28;42.50;;;21.38;;
4569;SDS011;2297;51.442;6.996;2022-10-18T10:34:57;35.45;;;18.60;;
4569;SDS011;2297;51.442;6.996;2022-10-18T10:37:29;27.88;;;14.88;;
4569;SDS011;2297;51.442;6.996;2022-10-18T10:40:09;29.65;;;15.60;;
4569;SDS011;2297;51.442;6.996;2022-10-18T10:42:57;29.05;;;15.32;;
4569;SDS011;2297;51.442;6.996;2022-10-18T10:45:28;29.23;;;15.80;;
4569;SDS011;2297;51.442;6.996;2022-10-18T10:48:01;28.10;;;13.50;;
4569;SDS011;2297;51.442;6.996;2022-10-18T10:53:21;27.05;;;15.13;;
4569;SDS011;2297;51.442;6.996;2022-10-18T10:56:03;33.10;;;16.67;;
4569;SDS011;2297;51.442;6.996;2022-10-18T11:01:45;25.40;;;14.68;;
4569;SDS011;2297;51.442;6.996;2022-10-18T11:04:24;26.52;;;14.05;;
4569;SDS011;2297;51.442;6.996;2022-10-18T11:07:02;26.60;;;14.75;;
4569;SDS011;2297;51.442;6.996;2022-10-18T11:09:47;24.50;;;13.10;;
4569;SDS011;2297;51.442;6.996;2022-10-18T11:12:21;23.65;;;12.63;;
4569;SDS011;2297;51.442;6.996;2022-10-18T11:14:55;26.55;;;15.07;;
4569;SDS011;2297;51.442;6.996;2022-10-18T11:17:28;23.13;;;12.93;;
4569;SDS011;2297;51.442;6.996;2022-10-18T11:20:02;29.48;;;14.02;;
4569;SDS011;2297;51.442;6.996;2022-10-18T11:22:50;129.85;;;30.05;;
4569;SDS011;2297;51.442;6.996;2022-10-18T11:25:26;93.18;;;24.33;;
4569;SDS011;2297;51.442;6.996;2022-10-18T11:28:05;165.75;;;40.40;;
4569;SDS011;2297;51.442;6.996;2022-10-18T11:30:41;45.60;;;17.45;;
4569;SDS011;2297;51.442;6.996;2022-10-18T11:33:20;27.98;;;14.52;;
4569;SDS011;2297;51.442;6.996;2022-10-18T11:35:53;27.75;;;16.10;;
4569;SDS011;2297;51.442;6.996;2022-10-18T11:38:29;26.23;;;14.82;;
4569;SDS011;2297;51.442;6.996;2022-10-18T11:41:12;27.60;;;14.55;;
4569;SDS011;2297;51.442;6.996;2022-10-18T11:43:49;29.25;;;16.25;;
4569;SDS011;2297;51.442;6.996;2022-10-18T11:46:21;26.65;;;14.80;;
4569;SDS011;2297;51.442;6.996;2022-10-18T11:52:03;27.42;;;16.17;;
4569;SDS011;2297;51.442;6.996;2022-10-18T11:54:48;28.40;;;14.57;;
4569;SDS011;2297;51.442;6.996;2022-10-18T11:57:41;21.27;;;11.98;;
4569;SDS011;2297;51.442;6.996;2022-10-18T12:00:15;19.63;;;10.52;;
4569;SDS011;2297;51.442;6.996;2022-10-18T12:02:55;16.40;;;8.82;;
4569;SDS011;2297;51.442;6.996;2022-10-18T12:05:30;61.17;;;28.20;;
4569;SDS011;2297;51.442;6.996;2022-10-18T12:07:59;23.88;;;12.50;;
4569;SDS011;2297;51.442;6.996;2022-10-18T12:10:31;20.48;;;9.68;;
4569;SDS011;2297;51.442;6.996;2022-10-18T12:13:02;17.77;;;9.65;;
4569;SDS011;2297;51.442;6.996;2022-10-18T12:15:32;17.98;;;8.70;;
4569;SDS011;2297;51.442;6.996;2022-10-18T12:18:03;14.70;;;7.50;;
4569;SDS011;2297;51.442;6.996;2022-10-18T12:20:32;20.02;;;9.00;;
4569;SDS011;2297;51.442;6.996;2022-10-18T12:23:03;23.92;;;11.48;;
4569;SDS011;2297;51.442;6.996;2022-10-18T12:25:34;25.40;;;11.90;;
4569;SDS011;2297;51.442;6.996;2022-10-18T12:28:07;21.48;;;11.82;;
4569;SDS011;2297;51.442;6.996;2022-10-18T12:30:45;26.45;;;12.40;;
4569;SDS011;2297;51.442;6.996;2022-10-18T12:33:20;18.52;;;10.57;;
4569;SDS011;2297;51.442;6.996;2022-10-18T12:35:53;21.30;;;10.40;;
4569;SDS011;2297;51.442;6.996;2022-10-18T12:38:26;18.48;;;8.60;;
4569;SDS011;2297;51.442;6.996;2022-10-18T12:40:55;17.13;;;9.00;;
4569;SDS011;2297;51.442;6.996;2022-10-18T12:43:25;23.40;;;10.23;;
4569;SDS011;2297;51.442;6.996;2022-10-18T12:45:57;17.75;;;9.90;;
4569;SDS011;2297;51.442;6.996;2022-10-18T12:48:30;21.17;;;10.32;;
4569;SDS011;2297;51.442;6.996;2022-10-18T12:53:45;18.70;;;10.15;;
4569;SDS011;2297;51.442;6.996;2022-10-18T12:56:34;17.23;;;8.05;;
4569;SDS011;2297;51.442;6.996;2022-10-18T13:02:21;17.90;;;8.20;;
4569;SDS011;2297;51.442;6.996;2022-10-18T13:04:53;13.07;;;6.03;;
4569;SDS011;2297;51.442;6.996;2022-10-18T13:07:30;43.22;;;20.02;;
4569;SDS011;2297;51.442;6.996;2022-10-18T13:16:06;13.65;;;7.18;;
4569;SDS011;2297;51.442;6.996;2022-10-18T13:18:49;42.00;;;5.95;;
4569;SDS011;2297;51.442;6.996;2022-10-18T13:21:19;10.65;;;3.97;;
4569;SDS011;2297;51.442;6.996;2022-10-18T13:24:01;16.02;;;5.18;;
4569;SDS011;2297;51.442;6.996;2022-10-18T13:26:48;10.60;;;4.70;;
4569;SDS011;2297;51.442;6.996;2022-10-18T13:32:31;14.25;;;4.60;;
4569;SDS011;2297;51.442;6.996;2022-10-18T13:35:20;11.57;;;4.97;;
4569;SDS011;2297;51.442;6.996;2022-10-18T13:38:26;16.85;;;5.50;;
4569;SDS011;2297;51.442;6.996;2022-10-18T13:41:02;8.50;;;3.67;;
4569;SDS011;2297;51.442;6.996;2022-10-18T13:46:22;8.25;;;3.70;;
4569;SDS011;2297;51.442;6.996;2022-10-18T13:48:50;12.02;;;4.32;;
4569;SDS011;2297;51.442;6.996;2022-10-18T13:51:25;9.75;;;4.53;;
4569;SDS011;2297;51.442;6.996;2022-10-18T13:54:02;13.73;;;4.28;;
4569;SDS011;2297;51.442;6.996;2022-10-18T13:56:50;8.45;;;3.65;;
4569;SDS011;2297;51.442;6.996;2022-10-18T13:59:38;9.32;;;3.92;;
4569;SDS011;2297;51.442;6.996;2022-10-18T14:04:58;7.18;;;3.22;;
4569;SDS011;2297;51.442;6.996;2022-10-18T14:08:09;8.65;;;3.25;;
4569;SDS011;2297;51.442;6.996;2022-10-18T14:10:42;38.17;;;16.83;;
4569;SDS011;2297;51.442;6.996;2022-10-18T14:13:16;8.90;;;4.28;;
4569;SDS011;2297;51.442;6.996;2022-10-18T14:15:47;9.18;;;3.22;;
4569;SDS011;2297;51.442;6.996;2022-10-18T14:18:17;10.15;;;2.97;;
4569;SDS011;2297;51.442;6.996;2022-10-18T14:20:50;10.32;;;3.10;;
4569;SDS011;2297;51.442;6.996;2022-10-18T14:23:22;18.85;;;3.05;;
4569;SDS011;2297;51.442;6.996;2022-10-18T14:25:53;10.63;;;3.50;;
4569;SDS011;2297;51.442;6.996;2022-10-18T14:28:21;9.77;;;3.35;;
4569;SDS011;2297;51.442;6.996;2022-10-18T14:30:50;10.68;;;3.33;;
4569;SDS011;2297;51.442;6.996;2022-10-18T14:33:25;12.88;;;3.60;;
4569;SDS011;2297;51.442;6.996;2022-10-18T14:35:59;10.10;;;3.08;;
4569;SDS011;2297;51.442;6.996;2022-10-18T14:38:30;6.97;;;2.67;;
4569;SDS011;2297;51.442;6.996;2022-10-18T14:41:05;8.65;;;2.88;;
4569;SDS011;2297;51.442;6.996;2022-10-18T14:43:38;7.55;;;2.50;;
4569;SDS011;2297;51.442;6.996;2022-10-18T14:46:08;21.08;;;3.60;;
4569;SDS011;2297;51.442;6.996;2022-10-18T14:48:51;8.35;;;2.85;;
4569;SDS011;2297;51.442;6.996;2022-10-18T14:51:19;9.82;;;3.05;;
4569;SDS011;2297;51.442;6.996;2022-10-18T14:53:47;6.45;;;2.30;;
4569;SDS011;2297;51.442;6.996;2022-10-18T14:56:22;5.90;;;2.45;;
4569;SDS011;2297;51.442;6.996;2022-10-18T14:58:51;7.78;;;2.33;;
4569;SDS011;2297;51.442;6.996;2022-10-18T15:01:20;4.18;;;2.13;;
4569;SDS011;2297;51.442;6.996;2022-10-18T15:03:49;6.63;;;2.05;;
4569;SDS011;2297;51.442;6.996;2022-10-18T15:06:21;13.48;;;5.93;;
4569;SDS011;2297;51.442;6.996;2022-10-18T15:08:50;7.95;;;2.00;;
4569;SDS011;2297;51.442;6.996;2022-10-18T15:11:19;8.52;;;1.92;;
4569;SDS011;2297;51.442;6.996;2022-10-18T15:13:47;5.18;;;2.10;;
4569;SDS011;2297;51.442;6.996;2022-10-18T15:16:17;10.70;;;2.63;;
4569;SDS011;2297;51.442;6.996;2022-10-18T15:18:57;23.30;;;8.88;;
4569;SDS011;2297;51.442;6.996;2022-10-18T15:21:25;15.32;;;5.30;;
4569;SDS011;2297;51.442;6.996;2022-10-18T15:23:54;9.50;;;2.97;;
4569;SDS011;2297;51.442;6.996;2022-10-18T15:26:44;8.90;;;2.30;;
4569;SDS011;2297;51.442;6.996;2022-10-18T15:29:15;7.00;;;2.28;;
4569;SDS011;2297;51.442;6.996;2022-10-18T15:31:43;7.07;;;2.15;;
4569;SDS011;2297;51.442;6.996;2022-10-18T15:34:14;4.03;;;1.92;;
4569;SDS011;2297;51.442;6.996;2022-10-18T15:37:13;6.43;;;2.08;;
4569;SDS011;2297;51.442;6.996;2022-10-18T15:39:43;7.95;;;2.60;;
4569;SDS011;2297;51.442;6.996;2022-10-18T15:48:25;18.15;;;2.88;;
4569;SDS011;2297;51.442;6.996;2022-10-18T15:50:55;5.70;;;2.15;;
4569;SDS011;2297;51.442;6.996;2022-10-18T15:53:23;7.65;;;2.67;;
4569;SDS011;2297;51.442;6.996;2022-10-18T15:58:27;9.75;;;2.22;;
4569;SDS011;2297;51.442;6.996;2022-10-18T16:00:56;5.47;;;2.03;;
4569;SDS011;2297;51.442;6.996;2022-10-18T16:03:25;5.30;;;2.13;;
4569;SDS011;2297;51.442;6.996;2022-10-18T16:05:54;6.57;;;3.03;;
4569;SDS011;2297;51.442;6.996;2022-10-18T16:08:24;6.95;;;2.08;;
4569;SDS011;2297;51.442;6.996;2022-10-18T16:10:52;8.73;;;2.40;;
4569;SDS011;2297;51.442;6.996;2022-10-18T16:13:20;5.95;;;2.67;;
4569;SDS011;2297;51.442;6.996;2022-10-18T16:15:47;7.15;;;2.50;;
4569;SDS011;2297;51.442;6.996;2022-10-18T16:18:15;8.95;;;2.40;;
4569;SDS011;2297;51.442;6.996;2022-10-18T16:20:43;8.25;;;2.40;;
4569;SDS011;2297;51.442;6.996;2022-10-18T16:23:18;97.00;;;46.42;;